createdAt,value
2018-05-15T00:01:32.254Z,94948.58
2018-05-15T00:04:00.708Z,94940.64
2018-05-15T00:06:29.135Z,94946.09
2018-05-15T00:08:57.690Z,94934.77
2018-05-15T00:11:26.152Z,94933.47
2018-05-15T00:13:54.606Z,94936.17
2018-05-15T00:16:23.036Z,94935.70
2018-05-15T00:18:51.501Z,94929.61
2018-05-15T00:21:20.683Z,94931.61
2018-05-15T00:23:49.129Z,94926.95
2018-05-15T00:26:17.536Z,94931.39
2018-05-15T00:28:46.003Z,94930.63
2018-05-15T00:31:14.434Z,94930.48
2018-05-15T00:33:43.655Z,94933.20
2018-05-15T00:36:12.080Z,94931.98
2018-05-15T00:38:40.559Z,94933.75
2018-05-15T00:41:08.986Z,94930.83
2018-05-15T00:43:38.219Z,94924.16
2018-05-15T00:46:06.660Z,94932.71
2018-05-15T00:48:35.141Z,94932.19
2018-05-15T00:51:03.559Z,94925.77
2018-05-15T00:53:31.986Z,94935.57
2018-05-15T00:56:00.468Z,94930.63
2018-05-15T00:58:28.974Z,94930.48
2018-05-15T01:00:57.453Z,94938.79
2018-05-15T01:03:25.896Z,94933.58
2018-05-15T01:05:54.362Z,94926.75
2018-05-15T01:08:22.784Z,94929.42
2018-05-15T01:10:51.260Z,94928.80
2018-05-15T01:13:19.687Z,94923.27
2018-05-15T01:15:49.004Z,94912.70
2018-05-15T01:18:18.243Z,94917.27
2018-05-15T01:20:46.704Z,94925.01
2018-05-15T01:23:15.903Z,94920.59
2018-05-15T01:25:45.135Z,94920.88
2018-05-15T01:28:13.589Z,94919.95
2018-05-15T01:30:42.812Z,94908.81
2018-05-15T01:33:11.236Z,94907.22
2018-05-15T01:35:39.674Z,94909.48
2018-05-15T01:38:08.144Z,94906.02
2018-05-15T01:40:37.334Z,94905.88
2018-05-15T01:43:05.795Z,94912.16
2018-05-15T01:45:34.223Z,94920.89
2018-05-15T01:48:03.450Z,94912.98
2018-05-15T01:50:32.406Z,94915.38
2018-05-15T01:53:01.650Z,94918.88
2018-05-15T01:55:30.087Z,94924.89
2018-05-15T01:57:58.538Z,94915.38
2018-05-15T02:00:26.970Z,94925.30
2018-05-15T02:02:56.175Z,94922.75
2018-05-15T02:05:25.395Z,94924.49
2018-05-15T02:07:53.936Z,94921.43
2018-05-15T02:10:23.269Z,94921.70
2018-05-15T02:12:52.464Z,94915.52
2018-05-15T02:15:21.684Z,94921.80
2018-05-15T02:17:50.101Z,94931.17
2018-05-15T02:20:18.575Z,94926.62
2018-05-15T02:22:47.003Z,94924.43
2018-05-15T02:25:15.451Z,94926.95
2018-05-15T02:27:43.884Z,94919.59
2018-05-15T02:30:12.364Z,94927.86
2018-05-15T02:32:41.571Z,94922.88
2018-05-15T02:35:10.777Z,94926.48
2018-05-15T02:37:40.006Z,94923.54
2018-05-15T02:40:08.439Z,94928.31
2018-05-15T02:42:36.903Z,94925.75
2018-05-15T02:45:05.354Z,94932.56
2018-05-15T02:47:33.833Z,94932.11
2018-05-15T02:50:02.364Z,94934.97
2018-05-15T02:52:30.900Z,94937.88
2018-05-15T02:55:00.185Z,94930.25
2018-05-15T02:57:29.438Z,94925.97
2018-05-15T02:59:57.880Z,94925.63
2018-05-15T03:02:27.227Z,94921.08
2018-05-15T03:04:55.660Z,94927.31
2018-05-15T03:07:24.247Z,94937.58
2018-05-15T03:09:52.767Z,94945.96
2018-05-15T03:12:21.334Z,94941.80
2018-05-15T03:14:50.590Z,94941.70
2018-05-15T03:17:19.104Z,94937.84
2018-05-15T03:19:47.570Z,94932.45
2018-05-15T03:22:16.032Z,94937.64
2018-05-15T03:24:44.475Z,94922.14
2018-05-15T03:27:13.677Z,94941.35
2018-05-15T03:29:42.895Z,94943.34
2018-05-15T03:32:12.093Z,94945.82
2018-05-15T03:34:41.312Z,94945.14
2018-05-15T03:37:09.740Z,94945.36
2018-05-15T03:39:38.185Z,94945.08
2018-05-15T03:42:06.614Z,94949.83
2018-05-15T03:44:35.102Z,94956.48
2018-05-15T03:47:03.534Z,94951.93
2018-05-15T03:49:31.964Z,94958.44
2018-05-15T03:52:00.423Z,94966.43
2018-05-15T03:54:28.832Z,94955.86
2018-05-15T03:56:57.294Z,94966.41
2018-05-15T03:59:25.724Z,94970.25
2018-05-15T04:02:11.992Z,94974.75
2018-05-15T04:04:58.155Z,94969.93
2018-05-15T04:07:44.521Z,94981.92
2018-05-15T04:10:12.939Z,94985.27
2018-05-15T04:12:41.926Z,94983.98
2018-05-15T04:15:10.351Z,94989.88
2018-05-15T04:17:38.801Z,94990.92
2018-05-15T04:20:07.331Z,94992.00
2018-05-15T04:22:36.630Z,94986.66
2018-05-15T04:25:05.918Z,94998.33
2018-05-15T04:27:34.519Z,95001.67
2018-05-15T04:30:03.083Z,95009.13
2018-05-15T04:32:31.628Z,95010.20
2018-05-15T04:35:00.065Z,95016.64
2018-05-15T04:37:28.547Z,95014.84
2018-05-15T04:39:57.031Z,95011.01
2018-05-15T04:42:25.504Z,95014.78
2018-05-15T04:44:53.922Z,95014.40
2018-05-15T04:47:22.480Z,95011.49
2018-05-15T04:49:50.900Z,95011.95
2018-05-15T04:52:19.470Z,95011.19
2018-05-15T04:54:47.935Z,95014.98
2018-05-15T04:57:16.364Z,95022.16
2018-05-15T04:59:45.591Z,95025.04
2018-05-15T05:02:14.033Z,95024.13
2018-05-15T05:04:42.493Z,95030.36
2018-05-15T05:07:10.916Z,95028.53
2018-05-15T05:09:40.192Z,95030.03
2018-05-15T05:12:08.638Z,95022.92
2018-05-15T05:14:37.095Z,95027.38
2018-05-15T05:17:06.273Z,95018.76
2018-05-15T05:19:34.730Z,95020.36
2018-05-15T05:22:03.160Z,95031.11
2018-05-15T05:24:31.636Z,95027.81
2018-05-15T05:27:00.048Z,95026.08
2018-05-15T05:29:28.534Z,95019.30
2018-05-15T05:31:56.957Z,95023.34
2018-05-15T05:34:25.399Z,95029.55
2018-05-15T05:36:54.601Z,95028.39
2018-05-15T05:39:23.779Z,95037.34
2018-05-15T05:41:52.230Z,95035.17
2018-05-15T05:44:20.656Z,95035.00
2018-05-15T05:46:49.893Z,95045.38
2018-05-15T05:49:18.316Z,95050.07
2018-05-15T05:51:46.784Z,95052.33
2018-05-15T05:54:15.208Z,95052.48
2018-05-15T05:56:44.414Z,95048.49
2018-05-15T05:59:13.601Z,95067.38
2018-05-15T06:01:42.038Z,95064.66
2018-05-15T06:04:10.454Z,95065.52
2018-05-15T06:06:38.925Z,95070.82
2018-05-15T06:09:07.362Z,95074.62
2018-05-15T06:11:36.562Z,95073.39
2018-05-15T06:14:05.773Z,95079.27
2018-05-15T06:16:34.979Z,95084.61
2018-05-15T06:19:03.439Z,95079.55
2018-05-15T06:21:32.643Z,95079.16
2018-05-15T06:24:01.864Z,95082.55
2018-05-15T06:26:30.297Z,95083.87
2018-05-15T06:28:58.739Z,95084.88
2018-05-15T06:31:27.160Z,95093.37
2018-05-15T06:33:55.829Z,95093.47
2018-05-15T06:36:24.245Z,95093.31
2018-05-15T06:38:52.706Z,95092.00
2018-05-15T06:41:21.137Z,95092.30
2018-05-15T06:43:50.359Z,95100.18
2018-05-15T06:46:19.543Z,95099.50
2018-05-15T06:48:47.952Z,95089.05
2018-05-15T06:51:16.415Z,95093.33
2018-05-15T06:53:45.615Z,95102.77
2018-05-15T06:56:14.067Z,95103.69
2018-05-15T06:58:42.501Z,95101.86
2018-05-15T07:01:10.965Z,95099.78
2018-05-15T07:03:39.404Z,95105.61
2018-05-15T07:06:07.868Z,95107.83
2018-05-15T07:08:36.307Z,95108.05
2018-05-15T07:11:04.754Z,95106.11
2018-05-15T07:13:33.163Z,95105.05
2018-05-15T07:16:01.614Z,95117.77
2018-05-15T07:18:30.032Z,95126.50
2018-05-15T07:20:58.477Z,95128.94
2018-05-15T07:23:26.901Z,95137.09
2018-05-15T07:25:55.332Z,95133.98
2018-05-15T07:28:24.675Z,95129.08
2018-05-15T07:30:53.109Z,95137.59
2018-05-15T07:33:21.576Z,95141.15
2018-05-15T07:35:49.990Z,95137.86
2018-05-15T07:38:19.215Z,95143.98
2018-05-15T07:40:47.627Z,95149.35
2018-05-15T07:43:16.191Z,95147.44
2018-05-15T07:45:44.666Z,95143.21
2018-05-15T07:48:13.193Z,95146.66
2018-05-15T07:50:41.567Z,95137.92
2018-05-15T07:53:10.022Z,95142.02
2018-05-15T07:55:38.461Z,95140.83
2018-05-15T07:58:06.922Z,95149.45
2018-05-15T08:00:35.360Z,95147.63
2018-05-15T08:03:03.831Z,95143.03
2018-05-15T08:05:33.016Z,95151.06
2018-05-15T08:08:01.461Z,95144.60
2018-05-15T08:10:29.913Z,95134.43
2018-05-15T08:12:59.097Z,95139.55
2018-05-15T08:15:28.316Z,95137.13
2018-05-15T08:17:57.493Z,95146.15
2018-05-15T08:20:25.968Z,95145.63
2018-05-15T08:22:54.401Z,95148.85
2018-05-15T08:25:22.845Z,95155.02
2018-05-15T08:27:51.255Z,95145.63
2018-05-15T08:30:20.464Z,95148.84
2018-05-15T08:32:49.010Z,95156.73
2018-05-15T08:35:17.463Z,95155.27
2018-05-15T08:37:45.896Z,95153.80
2018-05-15T08:40:15.112Z,95153.27
2018-05-15T08:42:44.383Z,95137.97
2018-05-15T08:45:12.842Z,95151.52
2018-05-15T08:47:41.251Z,95153.59
2018-05-15T08:50:09.776Z,95152.38
2018-05-15T08:52:38.959Z,95157.61
2018-05-15T08:55:08.175Z,95160.13
2018-05-15T08:57:37.373Z,95158.09
2018-05-15T09:00:06.618Z,95167.13
2018-05-15T09:02:35.047Z,95167.13
2018-05-15T09:05:03.500Z,95167.23
2018-05-15T09:07:32.091Z,95171.53
2018-05-15T09:10:00.548Z,95174.27
2018-05-15T09:12:28.995Z,95175.48
2018-05-15T09:14:58.214Z,95174.16
2018-05-15T09:17:26.679Z,95170.11
2018-05-15T09:19:55.903Z,95173.46
2018-05-15T09:22:24.536Z,95169.56
2018-05-15T09:24:53.112Z,95174.89
2018-05-15T09:27:21.604Z,95173.16
2018-05-15T09:29:50.077Z,95177.67
2018-05-15T09:32:18.486Z,95179.81
2018-05-15T09:34:46.914Z,95175.39
2018-05-15T09:37:15.384Z,95185.22
2018-05-15T09:39:44.574Z,95188.38
2018-05-15T09:42:13.797Z,95171.20
2018-05-15T09:44:42.984Z,95190.52
2018-05-15T09:47:11.443Z,95182.98
2018-05-15T09:49:39.866Z,95181.17
2018-05-15T09:52:09.115Z,95187.23
2018-05-15T09:54:37.545Z,95188.86
2018-05-15T09:57:06.764Z,95188.20
2018-05-15T09:59:35.941Z,95180.88
2018-05-15T10:02:05.166Z,95182.07
2018-05-15T10:04:33.585Z,95179.13
2018-05-15T10:07:02.018Z,95176.97
2018-05-15T10:09:31.211Z,95178.23
2018-05-15T10:12:00.298Z,95179.98
2018-05-15T10:14:28.721Z,95173.47
2018-05-15T10:16:57.165Z,95163.10
2018-05-15T10:19:25.584Z,95164.42
2018-05-15T10:21:54.035Z,95168.00
2018-05-15T10:24:22.429Z,95164.42
2018-05-15T10:26:50.888Z,95166.59
2018-05-15T10:29:19.307Z,95168.22
2018-05-15T10:31:48.506Z,95167.84
2018-05-15T10:34:16.916Z,95170.88
2018-05-15T10:36:45.358Z,95165.92
2018-05-15T10:39:13.768Z,95168.71
2018-05-15T10:41:42.969Z,95173.03
2018-05-15T10:44:12.160Z,95171.91
2018-05-15T10:46:41.363Z,95167.94
2018-05-15T10:49:10.626Z,95173.44
2018-05-15T10:51:39.062Z,95174.44
2018-05-15T10:54:08.243Z,95175.25
2018-05-15T10:56:36.754Z,95173.92
2018-05-15T10:59:05.162Z,95170.31
2018-05-15T11:01:33.614Z,95173.13
2018-05-15T11:04:02.848Z,95179.84
2018-05-15T11:06:31.283Z,95175.13
2018-05-15T11:08:59.721Z,95172.54
2018-05-15T11:11:28.252Z,95175.74
2018-05-15T11:13:56.662Z,95174.83
2018-05-15T11:16:25.872Z,95177.30
2018-05-15T11:18:55.043Z,95172.47
2018-05-15T11:24:49.303Z,95170.58
2018-05-15T11:27:17.754Z,95166.56
2018-05-15T11:29:46.188Z,95167.89
2018-05-15T11:32:15.431Z,95162.59
2018-05-15T11:34:43.838Z,95161.84
2018-05-15T11:37:12.258Z,95152.77
2018-05-15T11:39:40.701Z,95169.50
2018-05-15T11:42:09.126Z,95170.13
2018-05-15T11:44:37.587Z,95165.23
2018-05-15T11:47:06.005Z,95160.33
2018-05-15T11:49:34.951Z,95158.98
2018-05-15T11:52:03.803Z,95151.50
2018-05-15T11:54:31.375Z,95161.59
2018-05-15T11:57:00.611Z,95150.75
2018-05-15T11:59:29.837Z,95144.66
2018-05-15T12:01:58.268Z,95152.39
2018-05-15T12:04:27.494Z,95158.48
2018-05-15T12:06:55.938Z,95160.66
2018-05-15T12:09:25.146Z,95154.06
2018-05-15T12:11:54.318Z,95156.05
2018-05-15T12:14:22.767Z,95153.30
2018-05-15T12:16:51.941Z,95152.77
2018-05-15T12:19:21.164Z,95150.55
2018-05-15T12:21:49.588Z,95158.63
2018-05-15T12:24:18.028Z,95150.81
2018-05-15T12:26:46.447Z,95152.88
2018-05-15T12:29:14.878Z,95157.59
2018-05-15T12:31:44.060Z,95154.52
2018-05-15T12:34:12.516Z,95157.98
2018-05-15T12:36:40.928Z,95150.65
2018-05-15T12:39:09.368Z,95154.52
2018-05-15T12:41:37.917Z,95152.41
2018-05-15T12:44:07.023Z,95158.41
2018-05-15T12:46:36.219Z,95153.77
2018-05-15T12:49:05.422Z,95149.05
2018-05-15T12:51:34.588Z,95153.34
2018-05-15T12:54:03.147Z,95150.02
2018-05-15T12:56:31.521Z,95154.66
2018-05-15T12:59:00.065Z,95150.86
2018-05-15T13:01:29.288Z,95149.34
2018-05-15T13:03:58.472Z,95149.11
2018-05-15T13:06:26.932Z,95141.30
2018-05-15T13:08:55.343Z,95129.13
2018-05-15T13:11:23.788Z,95128.03
2018-05-15T13:13:52.200Z,95123.75
2018-05-15T13:16:20.630Z,95130.19
2018-05-15T13:18:49.040Z,95124.81
2018-05-15T13:21:17.487Z,95117.09
2018-05-15T13:23:45.919Z,95119.04
2018-05-15T13:26:14.352Z,95114.25
2018-05-15T13:28:42.842Z,95118.60
2018-05-15T13:31:11.354Z,95119.04
2018-05-15T13:33:39.748Z,95113.08
2018-05-15T13:36:08.186Z,95108.80
2018-05-15T13:38:38.135Z,95099.00
2018-05-15T13:41:06.610Z,95103.77
2018-05-15T13:43:35.039Z,95112.25
2018-05-15T13:46:03.521Z,95114.94
2018-05-15T13:48:32.778Z,95106.17
2018-05-15T13:51:01.393Z,95105.19
2018-05-15T13:53:29.833Z,95103.94
2018-05-15T13:55:59.036Z,95106.42
2018-05-15T13:58:28.253Z,95109.05
2018-05-15T14:00:56.662Z,95108.91
2018-05-15T14:03:25.113Z,95111.94
2018-05-15T14:05:54.211Z,95110.48
2018-05-15T14:08:24.217Z,95079.33
2018-05-15T14:10:53.512Z,95100.05
2018-05-15T14:13:26.904Z,95118.11
2018-05-15T14:15:56.527Z,95114.16
2018-05-15T14:18:26.755Z,95110.23
2018-05-15T14:20:57.057Z,95117.10
2018-05-15T14:23:30.981Z,95115.08
2018-05-15T14:26:02.245Z,95121.83
2018-05-15T14:28:31.833Z,95112.04
2018-05-15T14:31:02.154Z,95110.16
2018-05-15T14:33:30.611Z,95112.73
2018-05-15T14:35:59.023Z,95110.28
2018-05-15T14:38:27.488Z,95113.77
2018-05-15T14:40:55.888Z,95108.10
2018-05-15T14:43:26.136Z,95111.48
2018-05-15T14:45:55.325Z,95110.63
2018-05-15T14:48:23.763Z,95110.28
2018-05-15T14:54:13.608Z,95108.38
2018-05-15T14:56:43.113Z,95107.89
2018-05-15T14:59:13.230Z,95105.48
2018-05-15T15:01:41.635Z,95105.37
2018-05-15T15:04:10.092Z,95107.19
2018-05-15T15:06:38.526Z,95102.22
2018-05-15T15:09:07.703Z,95095.11
2018-05-15T15:11:36.901Z,95103.04
2018-05-15T15:14:06.250Z,95100.83
2018-05-15T15:16:34.685Z,95095.11
2018-05-15T15:19:03.874Z,95097.41
2018-05-15T15:21:32.319Z,95092.75
2018-05-15T15:24:00.738Z,95091.23
2018-05-15T15:26:29.206Z,95086.63
2018-05-15T15:28:57.661Z,95101.77
2018-05-15T15:31:26.107Z,95099.03
2018-05-15T15:33:55.330Z,95098.97
2018-05-15T15:36:23.801Z,95096.50
2018-05-15T15:38:52.995Z,95096.70
2018-05-15T15:41:22.202Z,95093.11
2018-05-15T15:43:51.388Z,95091.20
2018-05-15T15:46:20.665Z,95090.08
2018-05-15T15:48:49.093Z,95091.02
2018-05-15T15:51:18.305Z,95098.86
2018-05-15T15:53:46.735Z,95097.17
2018-05-15T15:56:15.178Z,95097.00
2018-05-15T15:58:43.600Z,95101.05
2018-05-15T16:01:12.068Z,95100.61
2018-05-15T16:03:40.549Z,95115.30
2018-05-15T16:06:09.002Z,95105.91
2018-05-15T16:08:38.184Z,95103.48
2018-05-15T16:11:06.624Z,95098.19
2018-05-15T16:13:35.054Z,95098.02
2018-05-15T16:16:03.529Z,95096.88
2018-05-15T16:18:31.952Z,95094.68
2018-05-15T16:21:00.418Z,95096.98
2018-05-15T16:23:29.616Z,95106.55
2018-05-15T16:25:58.064Z,95099.63
2018-05-15T16:28:26.497Z,95103.41
2018-05-15T16:30:55.803Z,95112.17
2018-05-15T16:33:24.173Z,95119.98
2018-05-15T16:35:53.853Z,95112.64
2018-05-15T16:38:22.271Z,95123.98
2018-05-15T16:40:51.496Z,95125.78
2018-05-15T16:43:19.980Z,95126.91
2018-05-15T16:45:48.487Z,95127.61
2018-05-15T16:48:16.907Z,95127.07
2018-05-15T16:50:45.385Z,95132.61
2018-05-15T16:53:13.955Z,95130.25
2018-05-15T16:55:42.364Z,95131.27
2018-05-15T16:58:10.824Z,95132.03
2018-05-15T17:00:39.289Z,95136.03
2018-05-15T17:03:07.815Z,95135.48
2018-05-15T17:05:36.222Z,95131.91
2018-05-15T17:08:04.714Z,95129.56
2018-05-15T17:10:33.117Z,95122.34
2018-05-15T17:13:01.621Z,95122.83
2018-05-15T17:15:30.146Z,95129.45
2018-05-15T17:17:58.607Z,95130.55
2018-05-15T17:20:28.085Z,95129.23
2018-05-15T17:22:57.054Z,95126.42
2018-05-15T17:25:26.252Z,95129.37
2018-05-15T17:27:56.384Z,95126.84
2018-05-15T17:30:26.480Z,95134.67
2018-05-15T17:32:54.939Z,95132.20
2018-05-15T17:35:23.410Z,95142.27
2018-05-15T17:37:51.864Z,95147.86
2018-05-15T17:40:21.108Z,95174.30
2018-05-15T17:42:49.573Z,95182.63
2018-05-15T17:45:18.436Z,95191.75
2018-05-15T17:47:46.861Z,95203.00
2018-05-15T17:50:16.046Z,95214.56
2018-05-15T17:52:44.521Z,95203.73
2018-05-15T17:55:13.047Z,95193.26
2018-05-15T17:57:41.482Z,95193.13
2018-05-15T18:00:10.727Z,95196.63
2018-05-15T18:02:39.327Z,95206.55
2018-05-15T18:05:07.836Z,95204.67
2018-05-15T18:07:36.642Z,95196.61
2018-05-15T18:10:06.052Z,95204.51
2018-05-15T18:12:38.271Z,95204.11
2018-05-15T18:15:06.798Z,95198.36
2018-05-15T18:17:35.276Z,95193.91
2018-05-15T18:20:03.761Z,95198.56
2018-05-15T18:22:32.268Z,95188.50
2018-05-15T18:25:01.491Z,95189.14
2018-05-15T18:27:30.112Z,95190.20
2018-05-15T18:29:59.304Z,95194.07
2018-05-15T18:32:27.772Z,95199.41
2018-05-15T18:34:56.212Z,95204.07
2018-05-15T18:37:24.742Z,95208.09
2018-05-15T18:39:53.210Z,95206.98
2018-05-15T18:42:22.541Z,95201.06
2018-05-15T18:44:51.011Z,95210.83
2018-05-15T18:47:19.574Z,95212.55
2018-05-15T18:49:48.004Z,95215.70
2018-05-15T18:52:16.479Z,95222.71
2018-05-15T18:54:44.892Z,95222.97
2018-05-15T18:57:13.349Z,95223.61
2018-05-15T18:59:41.760Z,95226.16
2018-05-15T19:02:10.290Z,95224.74
2018-05-15T19:04:38.732Z,95232.03
2018-05-15T19:07:07.185Z,95226.80
2018-05-15T19:09:35.606Z,95232.06
2018-05-15T19:12:04.335Z,95233.24
2018-05-15T19:14:33.532Z,95231.47
2018-05-15T19:17:02.757Z,95232.94
2018-05-15T19:19:31.352Z,95233.06
2018-05-15T19:21:59.670Z,95231.31
2018-05-15T19:24:28.109Z,95231.92
2018-05-15T19:26:57.466Z,95235.66
2018-05-15T19:29:25.833Z,95240.72
2018-05-15T19:31:54.331Z,95245.91
2018-05-15T19:34:26.350Z,95250.45
2018-05-15T19:36:58.698Z,95262.29
2018-05-15T19:39:32.661Z,95259.59
2018-05-15T19:42:02.439Z,95270.84
2018-05-15T19:44:30.868Z,95273.95
2018-05-15T19:47:00.040Z,95276.11
2018-05-15T19:49:28.556Z,95269.94
2018-05-15T19:51:57.059Z,95272.59
2018-05-15T19:54:25.501Z,95267.86
2018-05-15T19:56:54.009Z,95266.41
2018-05-15T19:59:23.323Z,95265.28
2018-05-15T20:01:51.791Z,95277.32
2018-05-15T20:04:20.261Z,95274.33
2018-05-15T20:06:48.680Z,95279.19
2018-05-15T20:09:17.123Z,95275.58
2018-05-15T20:11:45.633Z,95282.77
2018-05-15T20:14:14.094Z,95281.72
2018-05-15T20:16:42.535Z,95274.83
2018-05-15T20:19:11.004Z,95273.99
2018-05-15T20:21:39.434Z,95285.80
2018-05-15T20:24:11.562Z,95275.13
2018-05-15T20:26:39.991Z,95268.91
2018-05-15T20:29:09.303Z,95270.05
2018-05-15T20:31:38.286Z,95269.49
2018-05-15T20:34:07.491Z,95272.00
2018-05-15T20:36:35.965Z,95270.89
2018-05-15T20:39:04.413Z,95266.23
2018-05-15T20:41:32.910Z,95267.02
2018-05-15T20:44:01.350Z,95271.19
2018-05-15T20:46:29.796Z,95272.11
2018-05-15T20:48:58.216Z,95249.15
2018-05-15T20:51:26.726Z,95270.48
2018-05-15T20:53:55.179Z,95269.44
2018-05-15T20:56:24.399Z,95268.63
2018-05-15T20:58:52.829Z,95276.19
2018-05-15T21:01:21.467Z,95279.38
2018-05-15T21:03:49.909Z,95279.38
2018-05-15T21:06:18.378Z,95285.20
2018-05-15T21:08:46.811Z,95288.39
2018-05-15T21:11:16.036Z,95291.70
2018-05-15T21:13:44.470Z,95284.23
2018-05-15T21:16:12.937Z,95285.60
2018-05-15T21:18:41.372Z,95287.58
2018-05-15T21:21:09.824Z,95297.40
2018-05-15T21:23:38.247Z,95295.88
2018-05-15T21:26:06.679Z,95296.77
2018-05-15T21:28:35.140Z,95307.67
2018-05-15T21:31:03.678Z,95300.69
2018-05-15T21:33:32.895Z,95303.77
2018-05-15T21:36:01.299Z,95302.81
2018-05-15T21:38:29.767Z,95303.30
2018-05-15T21:40:58.201Z,95298.05
2018-05-15T21:43:26.659Z,95289.20
2018-05-15T21:45:55.077Z,95294.67
2018-05-15T21:48:23.531Z,95288.04
2018-05-15T21:50:51.950Z,95290.45
2018-05-15T21:53:20.404Z,95280.77
2018-05-15T21:55:48.823Z,95283.06
2018-05-15T21:58:17.251Z,95281.44
2018-05-15T22:00:45.702Z,95280.70
2018-05-15T22:03:14.888Z,95285.80
2018-05-15T22:05:43.432Z,95277.89
2018-05-15T22:08:12.008Z,95276.92
2018-05-15T22:10:40.463Z,95280.50
2018-05-15T22:13:27.217Z,95269.39
2018-05-15T22:16:13.296Z,95278.80
2018-05-15T22:18:59.572Z,95272.46
2018-05-15T22:21:45.889Z,95271.09
2018-05-15T22:24:29.196Z,95274.30
2018-05-15T22:26:57.669Z,95269.02
2018-05-15T22:29:26.086Z,95268.62
2018-05-15T22:31:54.534Z,95269.36
2018-05-15T22:34:23.733Z,95269.18
2018-05-15T22:36:52.188Z,95272.45
2018-05-15T22:39:20.626Z,95271.52
2018-05-15T22:41:49.076Z,95268.92
2018-05-15T22:44:18.283Z,95268.44
2018-05-15T22:46:47.500Z,95246.88
2018-05-15T22:49:15.929Z,95263.20
2018-05-15T22:51:44.397Z,95262.61
2018-05-15T22:54:12.840Z,95255.00
2018-05-15T22:56:42.024Z,95253.89
2018-05-15T22:59:10.481Z,95256.20
2018-05-15T23:01:38.908Z,95264.88
2018-05-15T23:04:08.113Z,95265.41
2018-05-15T23:06:37.305Z,95265.29
2018-05-15T23:09:06.524Z,95261.79
2018-05-15T23:11:34.945Z,95272.59
2018-05-15T23:14:03.387Z,95265.80
2018-05-15T23:16:32.681Z,95262.17
2018-05-15T23:19:01.904Z,95264.72
2018-05-15T23:21:30.324Z,95258.04
2018-05-15T23:23:58.775Z,95250.24
2018-05-15T23:26:27.250Z,95250.39
2018-05-15T23:28:55.711Z,95237.66
2018-05-15T23:31:24.213Z,95240.08
2018-05-15T23:33:52.680Z,95243.46
2018-05-15T23:36:21.100Z,95238.27
2018-05-15T23:38:49.610Z,95234.92
2018-05-15T23:41:18.065Z,95231.16
2018-05-15T23:43:46.520Z,95236.80
2018-05-15T23:46:15.053Z,95245.33
2018-05-15T23:48:43.483Z,95244.77
2018-05-15T23:51:12.008Z,95242.21
2018-05-15T23:53:43.074Z,95234.79
2018-05-15T23:56:11.542Z,95227.15
2018-05-15T23:58:39.952Z,95216.58
